A80 TRACON Summary / KATL TAF
ATL TRACON Summary:
Dry-high pressure will remain the dominant feature over ZTL overnight. Expect VFR conditions as high clouds spread across the ATL TRACON airspace. Surface winds will be mostly west to north near 5kts. No significant flight hazards are expected in the TRACON Airspace.

Updated: 10/23/2014 7:51 PM
ATL Terminal Aerodrome Forecast:

FTUS80 KATL 240754 AAA
KATL 240752Z 2408/2512 32005KT P6SM FEW150 BKN250
     FM241600 32005KT P6SM SCT150
     FM250000 33005KT P6SM SKC
ATL TRACON Area Remark:
NONE.
Convective Gate Forecast / Collaborative Convective Forecast Product / Vertical Wind Profile
Convective Gate Forecast
SIGMETS/ Southeast Radar & Satellite Loops (click on image to enlarge)

Southeast Radar Loop

 



USA.gov is the U.S. government's official web portal to all federal, state and local government web resources and services.